Novagold Resources Inc (NG) Latest Bloomsberg Price


Mffais Ranking #331 Overall / #15 Industry
Industry: Precious Metal Mining

Number of Companies: 100 (Ranking #1642 Overall/#22 Industry)
Inflow: $ 50,085 (K) (Ranking #1309 Overall/#28 Industry)
Outflow: $ -25,651 (K)
Mffais Flow: $ 24,433 (K) (Ranking #331 Overall/#15 Industry)


Receive a FREE weekly executive review of stocks moving into the top 10, taking the top industy spot or moving up within their industry. Sent directly to your Inbox every Saturday. Sign up today and get last week's review immediately sent to you.

We value and respect your privacy. Please read our Terms and Conditions which states our firm commitment to your privacy. Your email address will not be shared with a third party, nor will it be sold or used for purposes other than subscription for the weekly review.

Owner CPOR Shares Action Qty Chg Invested (K) Total Current Value (K)
Van Eck Associates Corp 2016-09-30 26,811,729 Added More 6,688,525 $ 40,800 $ 163,551
Empyrean Capital Partners Lp 2016-09-30 2,317,623 Added More 400,000 $ 2,440 $ 14,137
Banco Btg Pactual S A 2016-09-30 250,000 New Holding 250,000 $ 1,525 $ 1,525
Bluefin Trading Llc 2016-09-30 183,598 New Holding 183,598 $ 1,119 $ 1,119
Royce Associates Lp 2016-09-30 260,000 Added More 125,000 $ 762 $ 1,586
Group One Trading L P 2016-09-30 175,249 Added More 83,547 $ 509 $ 1,069
Pdt Partners Llc 2016-09-30 69,500 New Holding 69,500 $ 423 $ 423
Teacher Retirement System Of Texas 2016-09-30 2,495,000 Added More 50,000 $ 305 $ 15,219
Global X Management Co Llc 2016-09-30 603,952 Added More 43,923 $ 267 $ 3,684
Cambridge Investment Research Advisors Inc 2016-09-30 39,902 New Holding 39,902 $ 243 $ 243
Hightower Advisors Llc 2016-09-30 37,830 New Holding 37,830 $ 230 $ 230
Emerald Acquisition Ltd 2016-09-30 696,813 Added More 31,616 $ 192 $ 4,250
Cutler Group Lp 2016-09-30 31,400 Added More 30,892 $ 188 $ 191
Ahl Partners Llp 2016-09-30 66,882 Added More 30,086 $ 183 $ 407
David R Rahn Associates Inc 2016-09-30 68,556 Added More 28,996 $ 176 $ 418
A R T Advisors Llc 2016-09-30 24,400 New Holding 24,400 $ 148 $ 148
Creative Planning 2016-09-30 44,193 Added More 24,176 $ 147 $ 269
Timber Hill Llc 2016-09-30 18,665 New Holding 18,665 $ 113 $ 113
Kopernik Global Investors Llc 2016-09-30 1,786,066 Added More 10,527 $ 64 $ 10,895
Commonwealth Equity Services Inc 2016-09-30 23,398 Added More 7,990 $ 48 $ 142
Tower Research Capital Llc Trc 2016-09-30 5,300 Added More 4,992 $ 30 $ 32
Old West Investment Management Llc 2016-09-30 935,111 Added More 4,935 $ 30 $ 5,704
Pnc Financial Services Group Inc 2016-09-30 5,520 Added More 3,920 $ 23 $ 33
Account Management Llc 2016-09-30 271,390 Added More 3,750 $ 22 $ 1,655
Swiss National Bank 2016-09-30 387,900 Added More 3,200 $ 19 $ 2,366
Cibc World Markets Inc 2016-09-30 99,034 Added More 2,897 $ 17 $ 604
Zurcher Kantonalbank Zurich Cantonalbank 2016-09-30 16,124 Added More 2,066 $ 12 $ 98
World Asset Management Inc 2016-09-30 21,457 Added More 1,600 $ 9 $ 130
Us Bancorp De 2016-09-30 1,640 Added More 1,400 $ 8 $ 10
Highlander Capital Management Llc 2016-09-30 750 New Holding 750 $ 4 $ 4
Sei Investments Co 2016-09-30 500 New Holding 500 $ 3 $ 3
Springbok Capital Management Llc 2016-09-30 500 New Holding 500 $ 3 $ 3
Horizon Kinetics Llc 2016-09-30 149,787 Added More 322 $ 1 $ 913
Salem Investment Counselors Inc 2016-09-30 300 New Holding 300 $ 1 $ 1
New Harbor Financial Group Llc 2016-09-30 295 New Holding 295 $ 1 $ 1
Flow Traders U S Llc 2016-09-30 100 New Holding 100 $ 0 $ 0
Msi Financial Services Inc 2016-09-30 2,385 Added More 37 $ 0 $ 14
Cna Financial Corp 2016-09-30 109,110 No Change 0 $ 0 $ 665
Loews Corp 2016-09-30 13,166 No Change 0 $ 0 $ 80
Legal General Group Plc 2016-09-30 27,323 No Change 0 $ 0 $ 166
Washington Trust Bank 2016-09-30 1,550 No Change 0 $ 0 $ 9
Osterweis Capital Management Inc 2016-09-30 12,100 No Change 0 $ 0 $ 73
United Services Automobile Association 2016-09-30 159,000 No Change 0 $ 0 $ 969
Baupost Group Llc Ma 2016-09-30 9,500,000 No Change 0 $ 0 $ 57,950
Massmutual Trust Co Fsb Adv 2016-06-30 75 No Change 0 $ 0 $ 0
Agf Investments Inc 2016-09-30 6,661 No Change 0 $ 0 $ 40
Steadfast Advisors Lp 2016-09-30 320,551 No Change 0 $ 0 $ 1,955
Reilly Financial Advisors Llc 2016-09-30 20,200 No Change 0 $ 0 $ 123
Aperio Group Llc 2016-09-30 151,396 No Change 0 $ 0 $ 923
Legacy Capital Partners Inc 2016-09-30 26,100 No Change 0 $ 0 $ 159
Antipodean Advisors Llc 2016-09-30 858,000 No Change 0 $ 0 $ 5,233
Rocky Mountain Advisers Llc 2016-09-30 6,000 No Change 0 $ 0 $ 36
Msd Partners L P 2016-09-30 2,992,878 No Change 0 $ 0 $ 18,256
Three Corner Global Investors Lp 2016-09-30 359,200 No Change 0 $ 0 $ 2,191
Winch Advisory Services Llc 2016-09-30 3,740 No Change 0 $ 0 $ 22
Trust Investment Advisors 2016-09-30 10,000 No Change 0 $ 0 $ 61
Mark Sheptoff Financial Planning Llc 2016-09-30 274 No Change 0 $ 0 $ 1
Gemmer Asset Management Llc 2016-09-30 800 No Change 0 $ 0 $ 4
Advisor Group Inc 2016-09-30 31,603 No Change 0 $ 0 $ 192
Arete Wealth Advisors Llc 2016-09-30 143,523 Sold Some -192 $ -1 $ 875
Ifp Advisors Inc 2016-09-30 41,500 Sold Some -500 $ -3 $ 253
Next Financial Group Inc 2016-09-30 250 Sold Some -500 $ -3 $ 1
Checchi Capital Advisers Llc 2016-09-30 0 Sold All -776 $ -4 $ 0
Comerica Bank 2016-09-30 16,018 Sold Some -1,078 $ -6 $ 97
Raymond James Financial Services Advisors Inc 2016-09-30 25,748 Sold Some -1,797 $ -10 $ 157
Ct Financial Advisors Llc 2016-09-30 0 Sold All -2,400 $ -14 $ 0
James Investment Research Inc 2016-09-30 96,710 Sold Some -2,430 $ -14 $ 589
Guggenheim Capital Llc 2016-09-30 490,903 Sold Some -2,890 $ -17 $ 2,994
Boyle Capital Management Llc 2016-09-30 258,207 Sold Some -3,022 $ -18 $ 1,575
National Planning Corp 2016-09-30 147,953 Sold Some -3,044 $ -18 $ 902
Peak6 Investments L P 2016-09-30 29,000 Sold Some -6,851 $ -41 $ 176
Ladenburg Thalmann Financial Services Inc 2016-09-30 17,000 Sold Some -8,519 $ -51 $ 103
Wfg Advisors Lp 2016-09-30 76,550 Sold Some -9,050 $ -55 $ 466
First Premier Bank 2016-09-30 0 Sold All -10,000 $ -61 $ 0
Verition Fund Management Llc 2016-09-30 0 Sold All -14,061 $ -85 $ 0
Cibc Asset Management Inc 2016-09-30 89,886 Sold Some -15,196 $ -92 $ 548
Simplex Trading Llc 2016-09-30 12,229 Sold Some -16,761 $ -102 $ 74
Eqis Capital Management Inc 2016-09-30 0 Sold All -17,662 $ -107 $ 0
Raymond James Associates 2016-09-30 16,815 Sold Some -20,292 $ -123 $ 102
Sheaff Brock Investment Advisors Llc 2016-09-30 25,000 Sold Some -21,800 $ -132 $ 152
Commerzbank Aktiengesellschaft Fi 2016-09-30 0 Sold All -23,140 $ -141 $ 0
Geduld E E 2016-09-30 0 Sold All -25,000 $ -152 $ 0
Compagnie Lombard Odier Scma 2016-09-30 173,000 Sold Some -28,000 $ -170 $ 1,055
Cipher Capital Lp 2016-09-30 42,371 Sold Some -29,396 $ -179 $ 258
Spot Trading L L C 2016-09-30 40,300 Sold Some -37,900 $ -231 $ 245
Pinebridge Investments L P 2016-09-30 0 Sold All -40,710 $ -248 $ 0
Amp Capital Investors Ltd 2016-09-30 0 Sold All -41,500 $ -253 $ 0
Mackenzie Financial Corp 2016-09-30 0 Sold All -49,300 $ -300 $ 0
Kcg Holdings Inc 2016-09-30 39,435 Sold Some -74,110 $ -452 $ 240
Td Asset Management Inc 2016-09-30 971,455 Sold Some -78,554 $ -479 $ 5,925
Barometer Capital Management Inc 2016-09-30 0 Sold All -92,900 $ -566 $ 0
Paulson Co Inc 2016-09-30 25,602,996 Sold Some -102,400 $ -624 $ 156,178
Public Sector Pension Investment Board 2016-09-30 1,492,049 Sold Some -122,300 $ -746 $ 9,101
Cubist Systematic Strategies Llc 2016-09-30 19,101 Sold Some -129,723 $ -791 $ 116
Her Majesty The Queen In Right Of The Province Of Alberta As 2016-09-30 0 Sold All -159,500 $ -972 $ 0
Quantitative Investment Management Llc 2016-09-30 0 Sold All -175,200 $ -1,068 $ 0
Jane Street Group Llc 2016-09-30 475,883 Sold Some -517,384 $ -3,156 $ 2,902
Alps Advisors Inc 2016-09-30 273,528 Sold Some -597,192 $ -3,642 $ 1,668
Telemark Asset Management Llc 2016-09-30 0 Sold All -700,000 $ -4,270 $ 0
Connor Clark Lunn Investment Management Ltd 2016-09-30 3,916,926 Sold Some -1,022,150 $ -6,235 $ 23,893